sensor_id;sensor_type;location;lat;lon;timestamp;P1;durP1;ratioP1;P2;durP2;ratioP2
51286;SDS011;37364;46.974;18.916;2022-10-17T00:01:46;42.05;;;21.42;;
51286;SDS011;37364;46.974;18.916;2022-10-17T00:04:17;44.10;;;23.13;;
51286;SDS011;37364;46.974;18.916;2022-10-17T00:06:47;49.38;;;20.08;;
51286;SDS011;37364;46.974;18.916;2022-10-17T00:09:17;43.63;;;21.27;;
51286;SDS011;37364;46.974;18.916;2022-10-17T00:11:47;33.05;;;20.88;;
51286;SDS011;37364;46.974;18.916;2022-10-17T00:14:17;41.33;;;19.83;;
51286;SDS011;37364;46.974;18.916;2022-10-17T00:16:49;36.03;;;20.58;;
51286;SDS011;37364;46.974;18.916;2022-10-17T00:19:20;42.45;;;20.33;;
51286;SDS011;37364;46.974;18.916;2022-10-17T00:21:50;36.97;;;19.73;;
51286;SDS011;37364;46.974;18.916;2022-10-17T00:24:20;29.95;;;18.27;;
51286;SDS011;37364;46.974;18.916;2022-10-17T00:26:50;33.70;;;18.83;;
51286;SDS011;37364;46.974;18.916;2022-10-17T00:29:20;33.22;;;19.60;;
51286;SDS011;37364;46.974;18.916;2022-10-17T00:31:56;35.53;;;18.30;;
51286;SDS011;37364;46.974;18.916;2022-10-17T00:34:27;33.15;;;18.42;;
51286;SDS011;37364;46.974;18.916;2022-10-17T00:36:57;27.95;;;19.48;;
51286;SDS011;37364;46.974;18.916;2022-10-17T00:39:28;33.53;;;19.30;;
51286;SDS011;37364;46.974;18.916;2022-10-17T00:41:58;27.90;;;18.63;;
51286;SDS011;37364;46.974;18.916;2022-10-17T00:47:30;39.17;;;18.98;;
51286;SDS011;37364;46.974;18.916;2022-10-17T00:50:02;34.28;;;19.23;;
51286;SDS011;37364;46.974;18.916;2022-10-17T00:52:33;42.33;;;18.38;;
51286;SDS011;37364;46.974;18.916;2022-10-17T00:55:05;32.47;;;18.33;;
51286;SDS011;37364;46.974;18.916;2022-10-17T00:57:39;38.30;;;19.58;;
51286;SDS011;37364;46.974;18.916;2022-10-17T01:00:12;32.15;;;19.92;;
51286;SDS011;37364;46.974;18.916;2022-10-17T01:02:47;35.13;;;21.58;;
51286;SDS011;37364;46.974;18.916;2022-10-17T01:05:17;31.40;;;20.23;;
51286;SDS011;37364;46.974;18.916;2022-10-17T01:07:48;40.40;;;21.38;;
51286;SDS011;37364;46.974;18.916;2022-10-17T01:10:21;44.78;;;21.40;;
51286;SDS011;37364;46.974;18.916;2022-10-17T01:12:58;40.40;;;21.50;;
51286;SDS011;37364;46.974;18.916;2022-10-17T01:15:37;42.50;;;21.85;;
51286;SDS011;37364;46.974;18.916;2022-10-17T01:18:21;44.42;;;22.08;;
51286;SDS011;37364;46.974;18.916;2022-10-17T01:21:05;36.72;;;21.88;;
51286;SDS011;37364;46.974;18.916;2022-10-17T01:24:02;45.55;;;23.02;;
51286;SDS011;37364;46.974;18.916;2022-10-17T01:26:56;40.00;;;22.15;;
51286;SDS011;37364;46.974;18.916;2022-10-17T01:29:46;34.38;;;21.40;;
51286;SDS011;37364;46.974;18.916;2022-10-17T01:32:30;37.42;;;20.95;;
51286;SDS011;37364;46.974;18.916;2022-10-17T01:35:08;35.17;;;21.35;;
51286;SDS011;37364;46.974;18.916;2022-10-17T01:37:43;34.53;;;20.02;;
51286;SDS011;37364;46.974;18.916;2022-10-17T01:40:37;39.80;;;21.67;;
51286;SDS011;37364;46.974;18.916;2022-10-17T01:43:14;33.10;;;18.85;;
51286;SDS011;37364;46.974;18.916;2022-10-17T01:45:50;47.47;;;21.92;;
51286;SDS011;37364;46.974;18.916;2022-10-17T01:48:29;34.70;;;20.20;;
51286;SDS011;37364;46.974;18.916;2022-10-17T01:51:05;29.23;;;19.83;;
51286;SDS011;37364;46.974;18.916;2022-10-17T01:53:40;30.27;;;20.23;;
51286;SDS011;37364;46.974;18.916;2022-10-17T01:56:15;35.72;;;21.63;;
51286;SDS011;37364;46.974;18.916;2022-10-17T01:58:48;36.88;;;20.55;;
51286;SDS011;37364;46.974;18.916;2022-10-17T02:01:22;35.13;;;20.88;;
51286;SDS011;37364;46.974;18.916;2022-10-17T02:03:57;31.73;;;20.05;;
51286;SDS011;37364;46.974;18.916;2022-10-17T02:06:30;31.98;;;18.95;;
51286;SDS011;37364;46.974;18.916;2022-10-17T02:09:17;27.48;;;20.38;;
51286;SDS011;37364;46.974;18.916;2022-10-17T02:11:51;32.85;;;18.15;;
51286;SDS011;37364;46.974;18.916;2022-10-17T02:14:35;33.30;;;19.05;;
51286;SDS011;37364;46.974;18.916;2022-10-17T02:17:17;34.85;;;18.73;;
51286;SDS011;37364;46.974;18.916;2022-10-17T02:20:02;34.42;;;21.05;;
51286;SDS011;37364;46.974;18.916;2022-10-17T02:22:42;29.10;;;19.85;;
51286;SDS011;37364;46.974;18.916;2022-10-17T02:25:20;34.03;;;19.55;;
51286;SDS011;37364;46.974;18.916;2022-10-17T02:27:58;29.08;;;19.45;;
51286;SDS011;37364;46.974;18.916;2022-10-17T02:30:36;32.33;;;18.75;;
51286;SDS011;37364;46.974;18.916;2022-10-17T02:33:15;36.92;;;19.42;;
51286;SDS011;37364;46.974;18.916;2022-10-17T02:35:59;30.63;;;18.77;;
51286;SDS011;37364;46.974;18.916;2022-10-17T02:38:33;32.40;;;19.95;;
51286;SDS011;37364;46.974;18.916;2022-10-17T02:41:04;34.97;;;20.30;;
51286;SDS011;37364;46.974;18.916;2022-10-17T02:43:37;41.55;;;19.23;;
51286;SDS011;37364;46.974;18.916;2022-10-17T02:46:11;25.60;;;19.00;;
51286;SDS011;37364;46.974;18.916;2022-10-17T02:48:47;30.92;;;18.90;;
51286;SDS011;37364;46.974;18.916;2022-10-17T02:51:25;29.17;;;18.67;;
51286;SDS011;37364;46.974;18.916;2022-10-17T02:54:02;32.22;;;18.67;;
51286;SDS011;37364;46.974;18.916;2022-10-17T02:56:40;29.23;;;18.90;;
51286;SDS011;37364;46.974;18.916;2022-10-17T02:59:15;30.70;;;19.38;;
51286;SDS011;37364;46.974;18.916;2022-10-17T03:01:49;31.42;;;19.08;;
51286;SDS011;37364;46.974;18.916;2022-10-17T03:04:20;26.55;;;18.92;;
51286;SDS011;37364;46.974;18.916;2022-10-17T03:06:53;23.58;;;18.35;;
51286;SDS011;37364;46.974;18.916;2022-10-17T03:09:23;43.50;;;22.77;;
51286;SDS011;37364;46.974;18.916;2022-10-17T03:11:54;43.50;;;22.75;;
51286;SDS011;37364;46.974;18.916;2022-10-17T03:14:24;41.97;;;22.83;;
51286;SDS011;37364;46.974;18.916;2022-10-17T03:16:54;35.10;;;22.35;;
51286;SDS011;37364;46.974;18.916;2022-10-17T03:19:25;41.95;;;24.33;;
51286;SDS011;37364;46.974;18.916;2022-10-17T03:21:58;39.65;;;26.02;;
51286;SDS011;37364;46.974;18.916;2022-10-17T03:26:59;43.22;;;27.17;;
51286;SDS011;37364;46.974;18.916;2022-10-17T03:29:29;47.08;;;24.77;;
51286;SDS011;37364;46.974;18.916;2022-10-17T03:32:00;49.67;;;23.35;;
51286;SDS011;37364;46.974;18.916;2022-10-17T03:34:30;37.28;;;21.95;;
51286;SDS011;37364;46.974;18.916;2022-10-17T03:37:03;54.08;;;23.52;;
51286;SDS011;37364;46.974;18.916;2022-10-17T03:39:35;41.08;;;23.50;;
51286;SDS011;37364;46.974;18.916;2022-10-17T03:42:05;48.47;;;24.75;;
51286;SDS011;37364;46.974;18.916;2022-10-17T03:44:35;40.22;;;23.08;;
51286;SDS011;37364;46.974;18.916;2022-10-17T03:47:05;44.35;;;22.85;;
51286;SDS011;37364;46.974;18.916;2022-10-17T03:49:39;36.30;;;21.75;;
51286;SDS011;37364;46.974;18.916;2022-10-17T03:52:12;33.00;;;22.30;;
51286;SDS011;37364;46.974;18.916;2022-10-17T03:54:43;39.10;;;20.95;;
51286;SDS011;37364;46.974;18.916;2022-10-17T03:57:15;38.72;;;23.08;;
51286;SDS011;37364;46.974;18.916;2022-10-17T03:59:45;41.95;;;22.08;;
51286;SDS011;37364;46.974;18.916;2022-10-17T04:02:17;31.75;;;20.90;;
51286;SDS011;37364;46.974;18.916;2022-10-17T04:04:48;40.50;;;21.35;;
51286;SDS011;37364;46.974;18.916;2022-10-17T04:07:21;40.95;;;20.90;;
51286;SDS011;37364;46.974;18.916;2022-10-17T04:10:13;28.90;;;20.42;;
51286;SDS011;37364;46.974;18.916;2022-10-17T04:12:43;32.22;;;19.90;;
51286;SDS011;37364;46.974;18.916;2022-10-17T04:15:14;32.03;;;20.30;;
51286;SDS011;37364;46.974;18.916;2022-10-17T04:17:45;28.95;;;18.17;;
51286;SDS011;37364;46.974;18.916;2022-10-17T04:20:15;35.55;;;21.38;;
51286;SDS011;37364;46.974;18.916;2022-10-17T04:22:48;39.80;;;21.08;;
51286;SDS011;37364;46.974;18.916;2022-10-17T04:25:18;26.40;;;19.60;;
51286;SDS011;37364;46.974;18.916;2022-10-17T04:27:50;29.65;;;20.42;;
51286;SDS011;37364;46.974;18.916;2022-10-17T04:30:20;33.72;;;20.83;;
51286;SDS011;37364;46.974;18.916;2022-10-17T04:32:54;25.92;;;20.00;;
51286;SDS011;37364;46.974;18.916;2022-10-17T04:35:26;26.73;;;19.98;;
51286;SDS011;37364;46.974;18.916;2022-10-17T04:38:03;32.30;;;21.98;;
51286;SDS011;37364;46.974;18.916;2022-10-17T04:40:35;29.90;;;20.17;;
51286;SDS011;37364;46.974;18.916;2022-10-17T04:43:05;42.47;;;20.17;;
51286;SDS011;37364;46.974;18.916;2022-10-17T04:45:36;26.33;;;19.45;;
51286;SDS011;37364;46.974;18.916;2022-10-17T04:48:06;32.47;;;21.20;;
51286;SDS011;37364;46.974;18.916;2022-10-17T04:50:36;24.55;;;19.83;;
51286;SDS011;37364;46.974;18.916;2022-10-17T04:53:28;31.17;;;19.35;;
51286;SDS011;37364;46.974;18.916;2022-10-17T04:56:01;31.65;;;20.38;;
51286;SDS011;37364;46.974;18.916;2022-10-17T04:58:37;34.42;;;21.55;;
51286;SDS011;37364;46.974;18.916;2022-10-17T05:01:09;30.95;;;20.27;;
51286;SDS011;37364;46.974;18.916;2022-10-17T05:03:45;30.55;;;21.45;;
51286;SDS011;37364;46.974;18.916;2022-10-17T05:06:16;31.52;;;23.77;;
51286;SDS011;37364;46.974;18.916;2022-10-17T05:09:08;39.08;;;22.98;;
51286;SDS011;37364;46.974;18.916;2022-10-17T05:11:38;36.13;;;21.60;;
51286;SDS011;37364;46.974;18.916;2022-10-17T05:14:11;30.50;;;20.33;;
51286;SDS011;37364;46.974;18.916;2022-10-17T05:16:41;39.38;;;21.58;;
51286;SDS011;37364;46.974;18.916;2022-10-17T05:19:12;26.27;;;20.17;;
51286;SDS011;37364;46.974;18.916;2022-10-17T05:21:46;28.60;;;21.52;;
51286;SDS011;37364;46.974;18.916;2022-10-17T05:24:19;33.10;;;21.98;;
51286;SDS011;37364;46.974;18.916;2022-10-17T05:26:49;31.30;;;20.67;;
51286;SDS011;37364;46.974;18.916;2022-10-17T05:29:19;30.05;;;22.17;;
51286;SDS011;37364;46.974;18.916;2022-10-17T05:31:56;35.83;;;23.15;;
51286;SDS011;37364;46.974;18.916;2022-10-17T05:34:27;38.47;;;20.95;;
51286;SDS011;37364;46.974;18.916;2022-10-17T05:36:57;30.70;;;21.92;;
51286;SDS011;37364;46.974;18.916;2022-10-17T05:39:31;38.33;;;22.73;;
51286;SDS011;37364;46.974;18.916;2022-10-17T05:42:02;27.48;;;21.83;;
51286;SDS011;37364;46.974;18.916;2022-10-17T05:44:33;29.00;;;22.17;;
51286;SDS011;37364;46.974;18.916;2022-10-17T05:47:06;37.97;;;23.88;;
51286;SDS011;37364;46.974;18.916;2022-10-17T05:49:36;34.97;;;22.25;;
51286;SDS011;37364;46.974;18.916;2022-10-17T05:52:16;38.42;;;23.40;;
51286;SDS011;37364;46.974;18.916;2022-10-17T05:55:03;47.63;;;25.23;;
51286;SDS011;37364;46.974;18.916;2022-10-17T05:57:35;34.38;;;22.38;;
51286;SDS011;37364;46.974;18.916;2022-10-17T06:00:10;36.42;;;23.20;;
51286;SDS011;37364;46.974;18.916;2022-10-17T06:02:42;39.90;;;23.17;;
51286;SDS011;37364;46.974;18.916;2022-10-17T06:05:16;42.60;;;25.38;;
51286;SDS011;37364;46.974;18.916;2022-10-17T06:07:47;31.13;;;23.17;;
51286;SDS011;37364;46.974;18.916;2022-10-17T06:10:22;41.35;;;24.77;;
51286;SDS011;37364;46.974;18.916;2022-10-17T06:12:53;42.90;;;25.33;;
51286;SDS011;37364;46.974;18.916;2022-10-17T06:15:24;34.28;;;24.20;;
51286;SDS011;37364;46.974;18.916;2022-10-17T06:18:04;55.67;;;29.63;;
51286;SDS011;37364;46.974;18.916;2022-10-17T06:20:34;37.22;;;27.67;;
51286;SDS011;37364;46.974;18.916;2022-10-17T06:23:12;39.42;;;25.33;;
51286;SDS011;37364;46.974;18.916;2022-10-17T06:26:00;44.40;;;26.85;;
51286;SDS011;37364;46.974;18.916;2022-10-17T06:28:31;37.38;;;26.45;;
51286;SDS011;37364;46.974;18.916;2022-10-17T06:31:03;45.05;;;27.63;;
51286;SDS011;37364;46.974;18.916;2022-10-17T06:33:36;51.85;;;30.70;;
51286;SDS011;37364;46.974;18.916;2022-10-17T06:36:07;47.88;;;28.70;;
51286;SDS011;37364;46.974;18.916;2022-10-17T06:38:41;50.13;;;28.55;;
51286;SDS011;37364;46.974;18.916;2022-10-17T06:41:34;56.13;;;30.27;;
51286;SDS011;37364;46.974;18.916;2022-10-17T06:44:06;63.88;;;29.90;;
51286;SDS011;37364;46.974;18.916;2022-10-17T06:47:00;57.78;;;32.47;;
51286;SDS011;37364;46.974;18.916;2022-10-17T06:49:31;49.17;;;29.02;;
51286;SDS011;37364;46.974;18.916;2022-10-17T06:52:22;56.20;;;29.20;;
51286;SDS011;37364;46.974;18.916;2022-10-17T06:55:11;47.53;;;27.88;;
51286;SDS011;37364;46.974;18.916;2022-10-17T06:58:10;50.15;;;27.58;;
51286;SDS011;37364;46.974;18.916;2022-10-17T07:00:57;50.78;;;24.67;;
51286;SDS011;37364;46.974;18.916;2022-10-17T07:03:29;43.00;;;22.60;;
51286;SDS011;37364;46.974;18.916;2022-10-17T07:05:59;37.20;;;22.38;;
51286;SDS011;37364;46.974;18.916;2022-10-17T07:08:30;52.35;;;23.88;;
51286;SDS011;37364;46.974;18.916;2022-10-17T07:11:07;42.58;;;21.85;;
51286;SDS011;37364;46.974;18.916;2022-10-17T07:13:41;56.80;;;22.52;;
51286;SDS011;37364;46.974;18.916;2022-10-17T07:16:11;41.42;;;21.77;;
51286;SDS011;37364;46.974;18.916;2022-10-17T07:18:47;32.30;;;19.17;;
51286;SDS011;37364;46.974;18.916;2022-10-17T07:21:18;26.80;;;16.70;;
51286;SDS011;37364;46.974;18.916;2022-10-17T07:23:49;28.60;;;17.52;;
51286;SDS011;37364;46.974;18.916;2022-10-17T07:26:19;35.03;;;17.20;;
51286;SDS011;37364;46.974;18.916;2022-10-17T07:28:53;20.77;;;15.25;;
51286;SDS011;37364;46.974;18.916;2022-10-17T07:31:32;34.85;;;15.60;;
51286;SDS011;37364;46.974;18.916;2022-10-17T07:34:02;21.92;;;13.98;;
51286;SDS011;37364;46.974;18.916;2022-10-17T07:36:33;34.55;;;14.80;;
51286;SDS011;37364;46.974;18.916;2022-10-17T07:39:05;27.60;;;14.20;;
51286;SDS011;37364;46.974;18.916;2022-10-17T07:41:37;36.30;;;12.98;;
51286;SDS011;37364;46.974;18.916;2022-10-17T07:44:10;28.23;;;13.15;;
51286;SDS011;37364;46.974;18.916;2022-10-17T07:46:44;23.75;;;13.27;;
51286;SDS011;37364;46.974;18.916;2022-10-17T07:49:16;35.90;;;13.95;;
51286;SDS011;37364;46.974;18.916;2022-10-17T07:51:46;23.90;;;13.25;;
51286;SDS011;37364;46.974;18.916;2022-10-17T07:54:17;29.08;;;13.98;;
51286;SDS011;37364;46.974;18.916;2022-10-17T07:56:47;20.23;;;13.20;;
51286;SDS011;37364;46.974;18.916;2022-10-17T07:59:20;17.08;;;11.38;;
51286;SDS011;37364;46.974;18.916;2022-10-17T08:01:50;44.35;;;13.43;;
51286;SDS011;37364;46.974;18.916;2022-10-17T08:04:25;33.25;;;12.02;;
51286;SDS011;37364;46.974;18.916;2022-10-17T08:06:58;29.05;;;13.70;;
51286;SDS011;37364;46.974;18.916;2022-10-17T08:09:45;29.30;;;12.90;;
51286;SDS011;37364;46.974;18.916;2022-10-17T08:12:18;25.98;;;14.48;;
51286;SDS011;37364;46.974;18.916;2022-10-17T08:14:51;26.38;;;14.00;;
51286;SDS011;37364;46.974;18.916;2022-10-17T08:17:21;34.03;;;16.40;;
51286;SDS011;37364;46.974;18.916;2022-10-17T08:19:51;33.80;;;15.18;;
51286;SDS011;37364;46.974;18.916;2022-10-17T08:22:21;31.35;;;14.27;;
51286;SDS011;37364;46.974;18.916;2022-10-17T08:24:52;39.17;;;17.88;;
51286;SDS011;37364;46.974;18.916;2022-10-17T08:27:22;41.90;;;19.05;;
51286;SDS011;37364;46.974;18.916;2022-10-17T08:29:57;41.33;;;19.27;;
51286;SDS011;37364;46.974;18.916;2022-10-17T08:32:27;42.35;;;19.48;;
51286;SDS011;37364;46.974;18.916;2022-10-17T08:34:58;45.55;;;20.42;;
51286;SDS011;37364;46.974;18.916;2022-10-17T08:37:28;48.08;;;21.90;;
51286;SDS011;37364;46.974;18.916;2022-10-17T08:39:59;56.65;;;21.88;;
51286;SDS011;37364;46.974;18.916;2022-10-17T08:42:33;61.45;;;20.83;;
51286;SDS011;37364;46.974;18.916;2022-10-17T08:45:19;53.72;;;20.02;;
51286;SDS011;37364;46.974;18.916;2022-10-17T08:47:57;48.80;;;22.10;;
51286;SDS011;37364;46.974;18.916;2022-10-17T08:50:30;48.15;;;22.10;;
51286;SDS011;37364;46.974;18.916;2022-10-17T08:53:05;56.40;;;25.60;;
51286;SDS011;37364;46.974;18.916;2022-10-17T08:55:43;50.53;;;23.35;;
51286;SDS011;37364;46.974;18.916;2022-10-17T08:58:16;46.83;;;20.35;;
51286;SDS011;37364;46.974;18.916;2022-10-17T09:00:54;41.20;;;19.92;;
51286;SDS011;37364;46.974;18.916;2022-10-17T09:03:47;82.22;;;25.58;;
51286;SDS011;37364;46.974;18.916;2022-10-17T09:06:30;45.03;;;19.85;;
51286;SDS011;37364;46.974;18.916;2022-10-17T09:09:08;25.73;;;12.88;;
51286;SDS011;37364;46.974;18.916;2022-10-17T09:12:08;29.10;;;13.75;;
51286;SDS011;37364;46.974;18.916;2022-10-17T09:14:50;54.03;;;12.80;;
51286;SDS011;37364;46.974;18.916;2022-10-17T09:17:33;45.22;;;11.32;;
51286;SDS011;37364;46.974;18.916;2022-10-17T09:20:11;32.80;;;10.37;;
51286;SDS011;37364;46.974;18.916;2022-10-17T09:22:45;29.40;;;8.73;;
51286;SDS011;37364;46.974;18.916;2022-10-17T09:25:19;18.92;;;9.35;;
51286;SDS011;37364;46.974;18.916;2022-10-17T09:27:50;23.02;;;8.55;;
51286;SDS011;37364;46.974;18.916;2022-10-17T09:30:29;20.02;;;8.00;;
51286;SDS011;37364;46.974;18.916;2022-10-17T09:33:14;14.38;;;8.90;;
51286;SDS011;37364;46.974;18.916;2022-10-17T09:36:08;25.88;;;9.18;;
51286;SDS011;37364;46.974;18.916;2022-10-17T09:38:42;14.55;;;8.88;;
51286;SDS011;37364;46.974;18.916;2022-10-17T09:41:18;30.63;;;8.77;;
51286;SDS011;37364;46.974;18.916;2022-10-17T09:44:17;23.75;;;8.60;;
51286;SDS011;37364;46.974;18.916;2022-10-17T09:46:52;18.52;;;7.38;;
51286;SDS011;37364;46.974;18.916;2022-10-17T09:49:33;16.70;;;8.40;;
51286;SDS011;37364;46.974;18.916;2022-10-17T09:52:05;15.82;;;7.88;;
51286;SDS011;37364;46.974;18.916;2022-10-17T09:54:41;13.55;;;7.55;;
51286;SDS011;37364;46.974;18.916;2022-10-17T09:57:15;12.07;;;7.40;;
51286;SDS011;37364;46.974;18.916;2022-10-17T09:59:47;28.88;;;8.43;;
51286;SDS011;37364;46.974;18.916;2022-10-17T10:02:26;15.80;;;7.32;;
51286;SDS011;37364;46.974;18.916;2022-10-17T10:05:03;24.25;;;8.38;;
51286;SDS011;37364;46.974;18.916;2022-10-17T10:07:37;13.43;;;7.25;;
51286;SDS011;37364;46.974;18.916;2022-10-17T10:10:22;12.20;;;6.95;;
51286;SDS011;37364;46.974;18.916;2022-10-17T10:13:03;12.63;;;7.13;;
51286;SDS011;37364;46.974;18.916;2022-10-17T10:15:36;19.88;;;8.60;;
51286;SDS011;37364;46.974;18.916;2022-10-17T10:21:05;20.65;;;6.28;;
51286;SDS011;37364;46.974;18.916;2022-10-17T10:23:37;17.13;;;5.97;;
51286;SDS011;37364;46.974;18.916;2022-10-17T10:26:19;26.17;;;7.40;;
51286;SDS011;37364;46.974;18.916;2022-10-17T10:28:53;11.25;;;7.20;;
51286;SDS011;37364;46.974;18.916;2022-10-17T10:31:27;10.90;;;5.60;;
51286;SDS011;37364;46.974;18.916;2022-10-17T10:34:11;17.40;;;6.47;;
51286;SDS011;37364;46.974;18.916;2022-10-17T10:36:52;24.40;;;6.80;;
51286;SDS011;37364;46.974;18.916;2022-10-17T10:39:33;23.40;;;7.32;;
51286;SDS011;37364;46.974;18.916;2022-10-17T10:42:18;18.85;;;6.60;;
51286;SDS011;37364;46.974;18.916;2022-10-17T10:44:51;31.33;;;6.32;;
51286;SDS011;37364;46.974;18.916;2022-10-17T10:47:23;13.55;;;7.03;;
51286;SDS011;37364;46.974;18.916;2022-10-17T10:50:07;15.60;;;6.13;;
51286;SDS011;37364;46.974;18.916;2022-10-17T10:52:51;13.55;;;5.85;;
51286;SDS011;37364;46.974;18.916;2022-10-17T10:55:29;17.02;;;6.45;;
51286;SDS011;37364;46.974;18.916;2022-10-17T10:58:08;17.73;;;6.43;;
51286;SDS011;37364;46.974;18.916;2022-10-17T11:00:52;12.35;;;6.43;;
51286;SDS011;37364;46.974;18.916;2022-10-17T11:03:25;25.00;;;7.60;;
51286;SDS011;37364;46.974;18.916;2022-10-17T11:06:03;18.35;;;6.65;;
51286;SDS011;37364;46.974;18.916;2022-10-17T11:08:44;19.45;;;7.07;;
51286;SDS011;37364;46.974;18.916;2022-10-17T11:11:22;18.75;;;5.60;;
51286;SDS011;37364;46.974;18.916;2022-10-17T11:13:59;11.75;;;5.75;;
51286;SDS011;37364;46.974;18.916;2022-10-17T11:16:40;18.35;;;6.68;;
51286;SDS011;37364;46.974;18.916;2022-10-17T11:19:17;23.38;;;6.95;;
51286;SDS011;37364;46.974;18.916;2022-10-17T11:21:57;10.35;;;5.13;;
51286;SDS011;37364;46.974;18.916;2022-10-17T11:24:39;18.13;;;5.60;;
51286;SDS011;37364;46.974;18.916;2022-10-17T11:27:13;15.35;;;5.60;;
51286;SDS011;37364;46.974;18.916;2022-10-17T11:29:43;21.05;;;6.28;;
51286;SDS011;37364;46.974;18.916;2022-10-17T11:32:16;24.98;;;7.18;;
51286;SDS011;37364;46.974;18.916;2022-10-17T11:34:52;12.30;;;5.80;;
51286;SDS011;37364;46.974;18.916;2022-10-17T11:37:27;9.27;;;5.50;;
51286;SDS011;37364;46.974;18.916;2022-10-17T11:40:07;18.08;;;7.03;;
51286;SDS011;37364;46.974;18.916;2022-10-17T11:42:51;21.83;;;6.05;;
51286;SDS011;37364;46.974;18.916;2022-10-17T11:45:26;9.05;;;5.30;;
51286;SDS011;37364;46.974;18.916;2022-10-17T11:48:05;7.10;;;4.93;;
51286;SDS011;37364;46.974;18.916;2022-10-17T11:50:42;23.23;;;5.40;;
51286;SDS011;37364;46.974;18.916;2022-10-17T11:53:42;11.20;;;5.40;;
51286;SDS011;37364;46.974;18.916;2022-10-17T11:56:20;25.17;;;4.88;;
51286;SDS011;37364;46.974;18.916;2022-10-17T11:58:56;13.45;;;5.10;;
51286;SDS011;37364;46.974;18.916;2022-10-17T12:01:39;13.40;;;5.50;;
51286;SDS011;37364;46.974;18.916;2022-10-17T12:04:17;13.20;;;5.22;;
51286;SDS011;37364;46.974;18.916;2022-10-17T12:06:58;11.27;;;5.28;;
51286;SDS011;37364;46.974;18.916;2022-10-17T12:09:40;16.10;;;4.88;;
51286;SDS011;37364;46.974;18.916;2022-10-17T12:12:29;17.45;;;5.80;;
51286;SDS011;37364;46.974;18.916;2022-10-17T12:17:58;23.60;;;5.43;;
51286;SDS011;37364;46.974;18.916;2022-10-17T12:20:33;17.33;;;5.27;;
51286;SDS011;37364;46.974;18.916;2022-10-17T12:23:19;16.38;;;4.82;;
51286;SDS011;37364;46.974;18.916;2022-10-17T12:25:54;9.07;;;5.30;;
51286;SDS011;37364;46.974;18.916;2022-10-17T12:28:39;11.13;;;4.93;;
51286;SDS011;37364;46.974;18.916;2022-10-17T12:31:20;14.48;;;5.30;;
51286;SDS011;37364;46.974;18.916;2022-10-17T12:33:59;10.68;;;4.72;;
51286;SDS011;37364;46.974;18.916;2022-10-17T12:51:27;14.77;;;4.47;;
51286;SDS011;37364;46.974;18.916;2022-10-17T12:54:07;6.65;;;4.60;;
51286;SDS011;37364;46.974;18.916;2022-10-17T12:56:41;12.35;;;4.78;;
51286;SDS011;37364;46.974;18.916;2022-10-17T12:59:14;12.43;;;5.57;;
51286;SDS011;37364;46.974;18.916;2022-10-17T13:01:52;15.10;;;4.68;;
51286;SDS011;37364;46.974;18.916;2022-10-17T13:04:26;10.38;;;5.20;;
51286;SDS011;37364;46.974;18.916;2022-10-17T13:06:58;14.60;;;4.93;;
51286;SDS011;37364;46.974;18.916;2022-10-17T13:09:29;8.57;;;5.18;;
51286;SDS011;37364;46.974;18.916;2022-10-17T13:12:02;11.52;;;5.25;;
51286;SDS011;37364;46.974;18.916;2022-10-17T13:14:34;19.83;;;4.55;;
51286;SDS011;37364;46.974;18.916;2022-10-17T13:17:21;11.27;;;4.80;;
51286;SDS011;37364;46.974;18.916;2022-10-17T13:19:54;10.50;;;4.47;;
51286;SDS011;37364;46.974;18.916;2022-10-17T13:22:25;12.95;;;4.75;;
51286;SDS011;37364;46.974;18.916;2022-10-17T13:25:05;10.48;;;4.70;;
51286;SDS011;37364;46.974;18.916;2022-10-17T13:27:37;20.02;;;4.78;;
51286;SDS011;37364;46.974;18.916;2022-10-17T13:30:20;16.92;;;4.38;;
51286;SDS011;37364;46.974;18.916;2022-10-17T13:33:01;9.75;;;4.55;;
51286;SDS011;37364;46.974;18.916;2022-10-17T13:35:33;6.00;;;4.40;;
51286;SDS011;37364;46.974;18.916;2022-10-17T13:38:26;14.57;;;4.40;;
51286;SDS011;37364;46.974;18.916;2022-10-17T13:41:01;13.48;;;4.38;;
51286;SDS011;37364;46.974;18.916;2022-10-17T13:43:52;19.90;;;4.93;;
51286;SDS011;37364;46.974;18.916;2022-10-17T13:46:27;13.15;;;4.70;;
51286;SDS011;37364;46.974;18.916;2022-10-17T13:49:24;7.93;;;4.85;;
51286;SDS011;37364;46.974;18.916;2022-10-17T13:52:02;12.60;;;5.38;;
51286;SDS011;37364;46.974;18.916;2022-10-17T13:54:35;9.10;;;4.43;;
51286;SDS011;37364;46.974;18.916;2022-10-17T13:57:15;21.13;;;5.00;;
51286;SDS011;37364;46.974;18.916;2022-10-17T13:59:48;7.43;;;4.70;;
51286;SDS011;37364;46.974;18.916;2022-10-17T14:02:22;19.52;;;5.10;;
51286;SDS011;37364;46.974;18.916;2022-10-17T14:05:09;13.25;;;4.95;;
51286;SDS011;37364;46.974;18.916;2022-10-17T14:07:45;11.75;;;5.30;;
51286;SDS011;37364;46.974;18.916;2022-10-17T14:10:42;8.43;;;4.80;;
51286;SDS011;37364;46.974;18.916;2022-10-17T14:13:18;17.63;;;5.32;;
51286;SDS011;37364;46.974;18.916;2022-10-17T14:15:50;13.05;;;5.18;;
51286;SDS011;37364;46.974;18.916;2022-10-17T14:18:23;12.48;;;5.25;;
51286;SDS011;37364;46.974;18.916;2022-10-17T14:21:04;10.60;;;4.82;;
51286;SDS011;37364;46.974;18.916;2022-10-17T14:26:45;11.75;;;4.85;;
51286;SDS011;37364;46.974;18.916;2022-10-17T14:29:21;28.85;;;5.60;;
51286;SDS011;37364;46.974;18.916;2022-10-17T14:31:58;14.43;;;4.15;;
51286;SDS011;37364;46.974;18.916;2022-10-17T14:34:32;16.42;;;4.63;;
51286;SDS011;37364;46.974;18.916;2022-10-17T14:37:14;21.20;;;5.15;;
51286;SDS011;37364;46.974;18.916;2022-10-17T14:39:53;13.15;;;5.63;;
51286;SDS011;37364;46.974;18.916;2022-10-17T14:42:25;10.63;;;5.10;;
51286;SDS011;37364;46.974;18.916;2022-10-17T14:44:56;9.90;;;4.78;;
51286;SDS011;37364;46.974;18.916;2022-10-17T14:47:35;7.82;;;4.32;;
51286;SDS011;37364;46.974;18.916;2022-10-17T14:50:19;11.63;;;5.03;;
51286;SDS011;37364;46.974;18.916;2022-10-17T14:53:03;16.60;;;4.70;;
51286;SDS011;37364;46.974;18.916;2022-10-17T14:55:34;12.25;;;4.90;;
51286;SDS011;37364;46.974;18.916;2022-10-17T14:58:16;20.73;;;5.07;;
51286;SDS011;37364;46.974;18.916;2022-10-17T15:00:51;24.60;;;6.10;;
51286;SDS011;37364;46.974;18.916;2022-10-17T15:03:21;10.43;;;5.78;;
51286;SDS011;37364;46.974;18.916;2022-10-17T15:05:51;13.32;;;5.05;;
51286;SDS011;37364;46.974;18.916;2022-10-17T15:08:26;17.83;;;5.75;;
51286;SDS011;37364;46.974;18.916;2022-10-17T15:10:57;29.58;;;5.45;;
51286;SDS011;37364;46.974;18.916;2022-10-17T15:13:27;18.48;;;5.93;;
51286;SDS011;37364;46.974;18.916;2022-10-17T15:16:09;18.85;;;5.57;;
51286;SDS011;37364;46.974;18.916;2022-10-17T15:18:44;12.15;;;4.95;;
51286;SDS011;37364;46.974;18.916;2022-10-17T15:21:14;11.23;;;5.13;;
51286;SDS011;37364;46.974;18.916;2022-10-17T15:24:06;12.52;;;5.35;;
51286;SDS011;37364;46.974;18.916;2022-10-17T15:26:36;24.65;;;5.50;;
51286;SDS011;37364;46.974;18.916;2022-10-17T15:29:09;12.83;;;4.93;;
51286;SDS011;37364;46.974;18.916;2022-10-17T15:31:44;23.48;;;6.70;;
51286;SDS011;37364;46.974;18.916;2022-10-17T15:34:14;9.45;;;5.05;;